CW9648 Weather Reports


Display with metric or nautical units.
time (UTC)temp
F
wind
direction
speed
MPH
gust
MPH
rain 1hr
in
rain 24hr
in
rain mn
in
humidity
%
barometer
mb
20200526124624 65 342 0.0 0.0 0.00 0.26 0.00 96 1012.6
20200526123324 65 342 0.0 0.0 0.00 0.26 0.00 96 1012.6
20200526121606 64 342 0.0 0.0 0.00 0.26 0.00 96 1012.6
20200526120055 64 342 0.0 0.0 0.00 0.26 0.00 96 1012.2
20200526114719 64 355 0.0 0.0 0.00 0.26 0.00 96 1012.1
20200526113219 64 5 0.0 0.0 0.00 0.26 0.00 96 1012.5
20200526111726 64 348 0.0 0.0 0.00 0.26 0.00 96 1012.8
20200526110116 64 348 0.0 0.0 0.00 0.26 0.00 96 1012.4
20200526104631 65 348 0.0 0.0 0.00 0.26 0.00 96 1012.6
20200526103126 65 348 0.0 0.0 0.00 0.26 0.00 96 1012.6
20200526101639 65 348 0.0 0.0 0.00 0.26 0.00 96 1012.8
20200526100127 65 348 0.0 0.0 0.00 0.26 0.00 96 1012.9
20200526094601 65 348 0.0 0.0 0.00 0.26 0.00 96 1013.0
20200526093152 64 348 0.0 0.0 0.00 0.26 0.00 96 1012.8
20200526091605 64 344 0.0 0.0 0.00 0.26 0.00 96 1012.6
20200526090118 64 344 0.0 0.0 0.00 0.26 0.00 96 1011.4
20200526084611 64 344 0.0 0.0 0.00 0.26 0.00 96 1011.3
20200526083037 64 344 0.0 0.0 0.00 0.26 0.00 96 1011.3
20200526081533 65 344 0.0 0.0 0.00 0.26 0.00 96 1011.0
20200526080039 65 344 0.0 0.0 0.00 0.26 0.00 96 1010.9
20200526074654 65 344 0.0 0.0 0.00 0.26 0.00 96 1010.9
20200526073119 65 344 0.0 0.0 0.00 0.26 0.00 96 1011.1
20200526071628 65 345 0.0 0.0 0.00 0.26 0.00 96 1011.4
20200526070109 65 355 0.0 0.0 0.00 0.26 0.00 96 1011.3
20200526064600 65 355 0.0 0.0 0.00 0.26 0.00 96 1011.1
20200526063055 65 355 0.0 0.0 0.00 0.26 0.00 96 1011.2
20200526061536 65 355 0.0 0.0 0.00 0.26 0.00 96 1011.5
20200526060031 66 355 0.0 0.0 0.00 0.26 0.00 96 1011.4
20200526054541 66 355 0.0 0.0 0.00 0.26 0.00 96 1011.7
20200526053029 66 355 0.0 0.0 0.00 0.26 0.00 95 1011.7
20200526051518 67 355 0.0 0.0 0.00 0.26 0.00 95 1011.5
20200526050020 67 355 0.0 0.0 0.00 0.26 0.00 95 1011.5
20200526044529 67 355 0.0 0.0 0.00 0.26 0.26 94 1011.5
20200526043043 68 355 0.0 0.0 0.00 0.26 0.26 95 1011.4
20200526041517 68 355 0.0 0.0 0.00 0.26 0.26 95 1011.3
20200526040027 68 355 0.0 0.0 0.00 0.26 0.26 95 1011.1
20200526034513 67 355 0.0 0.0 0.00 0.28 0.26 95 1011.0
20200526033048 68 355 0.0 0.0 0.00 0.28 0.26 95 1010.9
20200526031509 68 355 0.0 0.0 0.00 0.28 0.26 95 1010.9
20200526030007 68 355 0.0 0.0 0.00 0.28 0.26 94 1010.7
20200526024504 68 355 0.0 0.0 0.00 0.34 0.26 94 1010.5
20200526023009 69 355 0.0 0.0 0.00 0.34 0.26 92 1010.3
20200526021737 69 355 0.0 0.0 0.00 0.34 0.26 91 1010.0
20200526020216 70 355 0.0 0.0 0.00 0.34 0.26 89 1010.1
20200526014853 71 355 0.0 0.0 0.00 0.73 0.26 88 1010.0
20200526013141 72 355 0.0 0.0 0.00 0.73 0.26 85 1009.9
20200526011705 72 312 0.0 3.0 0.00 0.73 0.26 85 1009.6
20200526010126 73 40 0.0 6.0 0.00 0.73 0.26 84 1009.5
20200526004711 75 355 0.0 3.0 0.00 1.02 0.26 81 1009.0
20200526003152 76 340 0.0 8.0 0.00 1.02 0.26 80 1008.7
20200526001634 77 335 0.0 0.0 0.00 1.02 0.26 80 1008.3
20200526000113 77 198 0.0 4.0 0.00 1.02 0.26 80 1008.0
20200525234648 78 130 0.0 7.0 0.00 1.31 0.26 81 1007.5
20200525233159 79 153 0.0 4.0 0.00 1.31 0.26 82 1007.2
20200525231729 80 130 0.0 4.0 0.00 1.31 0.26 83 1007.1
20200525230237 81 171 0.0 4.0 0.00 1.31 0.26 82 1006.9
20200525224622 82 94 0.0 8.0 0.00 1.62 0.26 81 1006.7
20200525223149 81 286 0.0 0.0 0.00 1.62 0.26 84 1006.3
20200525221625 80 175 0.0 7.0 0.00 1.62 0.26 86 1006.5
20200525220158 79 360 0.0 4.0 0.00 1.62 0.26 89 1006.4
20200525214625 80 291 0.0 4.0 0.00 1.73 0.26 85 1005.7
20200525213259 83 221 0.0 3.0 0.00 1.73 0.26 78 1005.5
20200525211647 83 196 0.0 4.0 0.00 1.73 0.26 84 1005.8
20200525210116 81 185 0.0 3.0 0.00 1.73 0.26 87 1006.0
20200525204602 81 211 0.0 3.0 0.00 1.74 0.26 86 1006.5
20200525203153 82 210 0.0 5.0 0.00 1.74 0.26 84 1006.8
20200525201627 81 192 0.0 1.0 0.00 1.74 0.26 86 1007.0
20200525200047 79 85 0.0 6.0 0.00 1.74 0.26 87 1007.3
20200525194607 79 180 0.0 3.0 0.00 1.77 0.26 89 1007.5
20200525193101 79 201 0.0 1.0 0.00 1.77 0.26 88 1007.8
20200525191614 78 325 0.0 4.0 0.00 1.77 0.26 90 1007.9
20200525190029 76 137 0.0 1.0 0.00 1.77 0.26 95 1007.9
20200525184517 74 134 0.0 0.0 0.00 1.97 0.26 95 1008.2
20200525183058 74 134 0.0 1.0 0.00 1.97 0.26 94 1008.4
20200525181600 74 80 0.0 0.0 0.00 1.97 0.26 95 1008.8
20200525180017 73 148 0.0 0.0 0.00 1.97 0.26 95 1008.9
20200525174514 73 148 0.0 0.0 0.00 2.02 0.26 95 1009.0
20200525173042 73 225 0.0 0.0 0.00 2.02 0.26 96 1009.1
20200525171535 73 232 0.0 3.0 0.00 2.02 0.26 96 1008.9
20200525170021 73 161 0.0 5.0 0.00 2.02 0.26 96 1009.0
20200525164523 73 136 0.0 7.0 0.00 2.02 0.26 95 1008.8
20200525163007 73 206 0.0 7.0 0.00 2.02 0.26 95 1008.7
20200525161520 73 227 0.0 0.0 0.00 2.02 0.26 95 1008.8
20200525160215 73 227 0.0 0.0 0.00 2.02 0.26 95 1008.0
20200525154617 72 227 0.0 0.0 0.01 2.02 0.26 94 1007.5
20200525153131 71 263 0.0 0.0 0.02 2.02 0.26 94 1007.3
20200525151610 70 263 0.0 4.0 0.04 2.02 0.26 94 1007.0
20200525150141 69 284 0.0 14.0 0.05 2.02 0.26 94 1006.0
20200525144601 69 117 1.0 9.0 0.25 2.02 0.25 94 1005.4
20200525143104 69 171 0.0 0.0 0.24 2.00 0.24 94 1007.4
20200525141546 69 259 0.0 5.0 0.22 1.99 0.22 94 1008.0
20200525140055 71 187 0.0 8.0 0.21 1.98 0.21 94 1008.6
20200525134549 72 260 0.0 2.0 0.00 1.77 0.00 93 1008.5
20200525133055 71 351 0.0 0.0 0.00 1.77 0.00 93 1008.7
20200525131533 70 351 0.0 0.0 0.00 1.77 0.00 94 1008.8
20200525130054 69 351 0.0 0.0 0.00 1.77 0.00 94 1008.8